Time;durP1;ratioP1;P1;durP2;ratioP2;P2;SDS_P1;SDS_P2;PMS_P1;PMS_P2;Temp;Humidity;BMP_temperature;BMP_pressure;BME280_temperature;BME280_humidity;BME280_pressure;Samples;Min_cycle;Max_cycle;Signal;HPM_P1;HPM_P2
2022/01/17 00:00:33;;;;;;;;;1.00;1.00;;;;;6.25;76.55;103005.34;5061223;28;45466;-81
2022/01/17 00:03:00;;;;;;;;;1.00;1.00;;;;;6.25;76.94;103022.59;5060692;28;45467;-80
2022/01/17 00:05:27;;;;;;;;;1.00;1.00;;;;;6.68;76.93;103089.09;5039068;28;45588;-80
2022/01/17 00:07:52;;;;;;;;;1.00;1.00;;;;;6.56;76.98;103069.38;5061318;28;45563;-80
2022/01/17 00:10:17;;;;;;;;;0.50;0.50;;;;;6.30;77.18;103026.34;5061757;28;45482;-81
2022/01/17 00:12:45;;;;;;;;;0.75;0.00;;;;;6.73;77.27;103108.38;5073582;28;45904;-81
2022/01/17 00:15:29;;;;;;;;;3.00;1.50;;;;;6.61;76.75;103087.78;5067162;28;45398;-81
2022/01/17 00:18:24;;;;;;;;;1.00;1.00;;;;;6.30;77.25;103040.19;5068697;28;45434;-81
2022/01/17 00:20:46;;;;;;;;;1.75;1.75;;;;;6.21;77.11;103009.47;5061108;28;45447;-82
2022/01/17 00:23:12;;;;;;;;;1.00;1.00;;;;;6.57;77.17;103072.88;5052830;28;45386;-82
2022/01/17 00:25:38;;;;;;;;;0.50;0.00;;;;;6.55;77.47;103059.84;5061996;28;45624;-81
2022/01/17 00:28:04;;;;;;;;;1.00;1.00;;;;;6.65;77.35;103082.00;5060911;28;46355;-82
2022/01/17 00:30:29;;;;;;;;;3.25;1.25;;;;;6.76;77.46;103099.91;5060523;28;45390;-81
2022/01/17 00:32:55;;;;;;;;;1.50;1.50;;;;;6.57;77.10;103062.53;5060086;28;45477;-81
2022/01/17 00:35:20;;;;;;;;;0.25;0.00;;;;;6.77;77.11;103093.94;5047143;28;45617;-81
2022/01/17 00:37:46;;;;;;;;;1.00;1.00;;;;;6.23;76.52;102995.72;5063804;28;45430;-81
2022/01/17 00:40:13;;;;;;;;;1.00;1.00;;;;;6.79;77.11;103095.84;5060454;28;45425;-81
2022/01/17 00:42:39;;;;;;;;;0.50;0.50;;;;;6.29;77.26;103019.38;5063234;28;45438;-81
2022/01/17 00:45:07;;;;;;;;;1.00;1.00;;;;;6.40;77.30;103039.06;5063491;28;45414;-82
2022/01/17 00:47:32;;;;;;;;;2.00;2.00;;;;;6.62;76.72;103073.19;5060429;28;45551;-82
2022/01/17 00:50:01;;;;;;;;;0.75;0.75;;;;;6.43;77.19;103040.97;5060309;28;45398;-82
2022/01/17 00:52:26;;;;;;;;;0.25;0.25;;;;;6.32;77.05;103017.91;5060846;28;45476;-81
2022/01/17 00:54:52;;;;;;;;;1.00;1.00;;;;;6.65;76.80;103073.38;5063077;28;45453;-82
2022/01/17 00:57:17;;;;;;;;;1.25;1.25;;;;;6.84;76.80;103116.84;5043617;28;48227;-82
2022/01/17 00:59:43;;;;;;;;;1.00;1.00;;;;;6.34;77.19;103020.56;5061104;28;45358;-83
2022/01/17 01:02:08;;;;;;;;;1.00;1.00;;;;;6.32;77.16;103012.72;5042259;28;45428;-83
2022/01/17 01:04:33;;;;;;;;;0.50;0.50;;;;;6.65;77.12;103071.66;5042468;28;45389;-82
2022/01/17 01:06:59;;;;;;;;;5.00;2.00;;;;;6.24;76.63;102998.41;5060502;28;45726;-83
2022/01/17 01:09:27;;;;;;;;;3.50;1.00;;;;;6.82;76.88;103100.28;5060303;28;45404;-83
2022/01/17 01:11:53;;;;;;;;;1.00;1.00;;;;;6.14;77.25;102988.28;5060596;28;45479;-83
2022/01/17 01:14:21;;;;;;;;;1.50;0.75;;;;;6.68;76.93;103063.22;5062154;28;45430;-84
2022/01/17 01:16:47;;;;;;;;;3.75;2.75;;;;;6.40;76.60;103035.59;5061508;28;45493;-83
2022/01/17 01:30:01;;;;;;;;;2.50;2.50;;;;;6.77;76.97;103094.81;5060279;28;45579;-83
2022/01/17 01:32:41;;;;;;;;;2.00;2.00;;;;;6.65;76.57;103069.06;5060895;28;45425;-83
2022/01/17 01:35:10;;;;;;;;;1.00;1.00;;;;;6.61;77.20;103061.91;5072635;28;45360;-83
2022/01/17 01:37:35;;;;;;;;;1.75;1.75;;;;;6.70;76.87;103078.03;5059796;28;47326;-83
2022/01/17 01:40:12;;;;;;;;;1.75;1.25;;;;;6.19;77.27;102994.66;5085224;28;45412;-83
2022/01/17 01:42:57;;;;;;;;;3.00;2.50;;;;;6.04;76.89;102966.13;5069668;28;45364;-83
2022/01/17 01:45:23;;;;;;;;;3.00;1.75;;;;;6.24;77.39;102997.50;5068158;28;45296;-83
2022/01/17 01:47:48;;;;;;;;;1.50;0.25;;;;;6.63;77.18;103072.38;5063162;28;45389;-82
2022/01/17 01:50:15;;;;;;;;;0.00;0.00;;;;;6.77;77.00;103106.91;5064467;28;45362;-83
2022/01/17 01:52:43;;;;;;;;;4.25;1.25;;;;;6.79;76.96;103105.28;5086539;27;45450;-82
2022/01/17 01:55:14;;;;;;;;;2.00;1.00;;;;;6.27;77.08;103016.72;5107155;28;45425;-83
2022/01/17 01:57:42;;;;;;;;;3.00;1.75;;;;;6.59;76.81;103082.53;5104564;28;47577;-81
2022/01/17 02:00:10;;;;;;;;;2.25;1.50;;;;;6.39;76.76;103049.31;5085179;27;45512;-82
2022/01/17 02:02:36;;;;;;;;;0.75;0.75;;;;;6.81;76.93;103106.28;5086181;27;45529;-81
2022/01/17 02:05:03;;;;;;;;;3.50;2.00;;;;;6.65;77.28;103088.91;5101250;27;45408;-82
2022/01/17 02:07:28;;;;;;;;;4.25;0.50;;;;;6.27;77.17;103029.63;5095820;27;45576;-82
2022/01/17 02:09:54;;;;;;;;;1.50;1.50;;;;;6.28;76.87;103039.19;5093894;27;45410;-82
2022/01/17 02:12:21;;;;;;;;;4.00;0.50;;;;;6.33;76.99;103044.66;5104074;27;46258;-82
2022/01/17 02:14:48;;;;;;;;;0.25;0.25;;;;;6.70;77.09;103097.84;5096797;27;46886;-83
2022/01/17 02:17:14;;;;;;;;;1.00;1.00;;;;;6.44;77.76;103055.69;5088167;27;46445;-82
2022/01/17 02:19:45;;;;;;;;;1.50;1.50;;;;;6.68;77.01;103097.72;5080901;28;45586;-82
2022/01/17 02:22:11;;;;;;;;;2.75;2.75;;;;;6.08;76.67;103006.88;5073345;27;45383;-81
2022/01/17 02:24:37;;;;;;;;;3.25;2.00;;;;;6.21;77.25;103021.47;5087374;27;45507;-82
2022/01/17 02:27:02;;;;;;;;;0.75;0.75;;;;;6.74;77.24;103104.13;5082834;28;45575;-83
2022/01/17 02:29:30;;;;;;;;;5.00;3.50;;;;;6.03;77.22;102990.16;5082434;27;45516;-82
2022/01/17 02:31:55;;;;;;;;;2.25;1.25;;;;;6.60;77.20;103086.03;5082346;28;45458;-82
2022/01/17 02:34:20;;;;;;;;;2.00;2.00;;;;;6.23;77.13;103013.81;5082201;28;45405;-82
2022/01/17 02:36:46;;;;;;;;;1.75;1.50;;;;;6.72;77.42;103109.19;5085156;28;46200;-82
2022/01/17 02:39:13;;;;;;;;;1.50;1.50;;;;;6.40;77.08;103041.66;5060891;28;45317;-82
2022/01/17 02:41:40;;;;;;;;;0.50;0.50;;;;;6.09;77.21;102987.97;5083716;28;45442;-83
2022/01/17 02:44:06;;;;;;;;;5.50;1.50;;;;;6.13;77.59;102995.16;5089845;27;45359;-81
2022/01/17 02:46:31;;;;;;;;;1.75;1.75;;;;;6.75;77.39;103091.28;5103058;27;46118;-81
2022/01/17 02:48:59;;;;;;;;;2.00;0.25;;;;;6.24;77.40;103013.91;5099679;27;45287;-83
2022/01/17 02:51:26;;;;;;;;;2.75;2.00;;;;;6.11;77.10;102988.06;5085642;27;45431;-82
2022/01/17 02:53:51;;;;;;;;;1.25;1.25;;;;;6.35;77.67;103019.78;5081351;28;45448;-82
2022/01/17 02:56:18;;;;;;;;;1.50;1.00;;;;;6.44;77.27;103038.44;5081380;28;45504;-82
2022/01/17 02:58:43;;;;;;;;;1.00;1.00;;;;;6.47;77.40;103053.31;5088538;27;45341;-82
2022/01/17 03:01:23;;;;;;;;;0.25;0.25;;;;;6.12;77.38;103006.28;5082924;28;45450;-82
2022/01/17 03:03:49;;;;;;;;;1.00;1.00;;;;;6.39;77.68;103046.72;5082667;28;45474;-82
2022/01/17 03:06:19;;;;;;;;;2.00;2.00;;;;;6.71;77.61;103105.69;5087169;27;45866;-82
2022/01/17 03:08:45;;;;;;;;;1.75;1.75;;;;;6.47;76.95;103085.22;5064561;28;45370;-82
2022/01/17 03:11:14;;;;;;;;;3.00;3.00;;;;;6.29;77.62;103053.03;5062199;28;45707;-83
2022/01/17 03:13:40;;;;;;;;;1.00;0.50;;;;;6.68;77.67;103120.16;5062086;28;45628;-82
2022/01/17 03:16:10;;;;;;;;;2.75;2.00;;;;;6.68;77.56;103120.16;5062055;28;45547;-82
2022/01/17 03:18:39;;;;;;;;;1.25;1.25;;;;;6.63;77.66;103129.31;5052654;28;45485;-83
2022/01/17 03:21:10;;;;;;;;;1.50;1.00;;;;;6.59;77.58;103126.53;5065895;28;45417;-84
2022/01/17 03:23:36;;;;;;;;;1.50;1.50;;;;;6.26;77.64;103074.44;5062699;28;45472;-84
2022/01/17 03:26:03;;;;;;;;;4.75;3.00;;;;;6.18;78.14;103063.56;5060930;28;48742;-84
2022/01/17 03:28:30;;;;;;;;;5.00;2.00;;;;;5.75;77.48;102980.59;5082904;28;45385;-84
2022/01/17 03:30:56;;;;;;;;;2.50;2.50;;;;;6.46;77.98;103098.97;5089639;28;45382;-83
2022/01/17 03:33:47;;;;;;;;;0.25;0.25;;;;;6.67;77.91;103136.47;5083387;28;44889;-83
2022/01/17 03:36:19;;;;;;;;;2.25;2.25;;;;;6.63;77.96;103142.25;5082647;28;45839;-83
2022/01/17 03:38:45;;;;;;;;;2.00;2.00;;;;;6.27;77.86;103081.38;5082022;28;45362;-83
2022/01/17 03:41:13;;;;;;;;;3.50;3.50;;;;;6.63;78.19;103140.56;5082043;28;45316;-83
2022/01/17 03:43:38;;;;;;;;;4.75;2.75;;;;;6.38;78.06;103109.63;5080325;28;45470;-83
2022/01/17 03:46:04;;;;;;;;;4.00;3.00;;;;;6.10;77.68;103063.88;5088500;27;45349;-84
2022/01/17 03:48:31;;;;;;;;;2.00;2.00;;;;;6.46;77.81;103139.47;5068103;27;45453;-83
2022/01/17 03:50:58;;;;;;;;;1.50;1.50;;;;;6.01;78.54;103075.41;5091985;27;45422;-83
2022/01/17 03:53:25;;;;;;;;;4.00;3.00;;;;;6.08;78.34;103090.53;5079835;28;45393;-83
2022/01/17 03:55:54;;;;;;;;;2.75;2.75;;;;;5.91;78.19;103073.00;5079169;28;46174;-82
2022/01/17 03:58:21;;;;;;;;;1.75;1.75;;;;;6.27;78.27;103140.88;5079497;27;45530;-83
2022/01/17 04:00:47;;;;;;;;;3.00;3.00;;;;;5.85;78.31;103080.34;5102263;27;45338;-83
2022/01/17 04:03:13;;;;;;;;;4.00;2.75;;;;;6.27;78.54;103145.16;5098543;27;45720;-83
2022/01/17 04:05:39;;;;;;;;;4.50;3.00;;;;;6.25;79.10;103145.03;5062924;28;46788;-83
2022/01/17 04:08:05;;;;;;;;;2.50;2.25;;;;;6.41;78.70;103166.75;5081661;28;45437;-83
2022/01/17 04:10:31;;;;;;;;;5.00;3.50;;;;;6.47;78.53;103167.16;5059347;28;45312;-82
2022/01/17 04:13:01;;;;;;;;;3.75;3.00;;;;;6.14;78.94;103112.41;5083309;28;45342;-84
2022/01/17 04:15:28;;;;;;;;;5.25;4.25;;;;;6.33;78.22;103145.56;5102991;27;45379;-83
2022/01/17 04:17:53;;;;;;;;;4.00;2.00;;;;;5.79;78.07;103060.16;5084404;27;45382;-83
2022/01/17 04:20:26;;;;;;;;;2.75;1.50;;;;;5.94;78.38;103092.19;5101936;27;45393;-83
2022/01/17 04:22:54;;;;;;;;;1.25;1.25;;;;;5.93;78.80;103112.75;5102246;27;45536;-83
2022/01/17 04:25:21;;;;;;;;;1.75;1.75;;;;;5.69;78.57;103076.72;5087265;27;45381;-83
2022/01/17 04:27:48;;;;;;;;;3.00;3.00;;;;;6.01;78.78;103124.53;5078842;28;45373;-84
2022/01/17 04:30:15;;;;;;;;;5.25;5.25;;;;;6.41;79.10;103187.47;5080740;28;45437;-83
2022/01/17 04:32:41;;;;;;;;;3.75;3.00;;;;;6.50;79.31;103177.72;5064513;28;45467;-83
2022/01/17 04:35:08;;;;;;;;;4.75;1.00;;;;;6.33;79.20;103128.34;5061055;28;48314;-82
2022/01/17 04:37:33;;;;;;;;;4.25;2.75;;;;;6.49;78.34;103144.84;5060453;28;45427;-82
2022/01/17 04:39:59;;;;;;;;;1.50;1.00;;;;;6.30;78.61;103110.03;5076874;28;45453;-83
2022/01/17 04:42:28;;;;;;;;;1.00;1.00;;;;;6.29;78.24;103107.34;5080073;28;45516;-82
2022/01/17 04:45:07;;;;;;;;;2.25;1.75;;;;;6.43;78.43;103134.13;5063728;28;47158;-82
2022/01/17 04:47:33;;;;;;;;;2.50;2.00;;;;;6.65;78.36;103163.97;5080514;28;45468;-83
2022/01/17 04:49:58;;;;;;;;;3.25;1.50;;;;;6.21;78.45;103096.50;5094055;28;45528;-82
2022/01/17 04:52:24;;;;;;;;;2.50;2.50;;;;;6.49;78.68;103149.16;5093725;28;44774;-82
2022/01/17 04:54:54;;;;;;;;;5.25;1.75;;;;;6.19;78.30;103093.81;5076739;28;45343;-80
2022/01/17 04:57:21;;;;;;;;;1.75;0.50;;;;;6.30;78.50;103119.47;5095968;28;44832;-82
2022/01/17 04:59:48;;;;;;;;;3.00;1.25;;;;;6.16;78.21;103090.16;5078558;28;45399;-80
2022/01/17 05:02:14;;;;;;;;;2.50;2.00;;;;;6.15;78.25;103086.66;5092309;28;44940;-82
2022/01/17 05:04:39;;;;;;;;;1.00;1.00;;;;;6.62;78.08;103176.72;5097453;28;45654;-81
2022/01/17 05:07:05;;;;;;;;;1.50;1.25;;;;;6.17;78.48;103095.41;5098385;28;44660;-82
2022/01/17 05:09:32;;;;;;;;;3.00;0.75;;;;;6.55;78.17;103170.22;5092061;27;45214;-82
2022/01/17 05:11:57;;;;;;;;;0.00;0.00;;;;;5.97;77.97;103078.53;5100814;27;44932;-83
2022/01/17 05:14:24;;;;;;;;;2.75;1.00;;;;;5.95;78.38;103091.38;5092679;28;44984;-83
2022/01/17 05:16:56;;;;;;;;;0.50;0.50;;;;;6.05;78.04;103100.69;5089518;27;45459;-83
2022/01/17 05:22:06;;;;;;;;;1.00;1.00;;;;;6.56;78.03;103203.97;5106308;27;45361;-82
2022/01/17 05:24:31;;;;;;;;;2.50;2.50;;;;;6.56;78.34;103198.78;5105372;27;46159;-83
2022/01/17 05:26:57;;;;;;;;;1.50;1.50;;;;;6.54;78.32;103184.88;5087088;27;45822;-80
2022/01/17 05:29:22;;;;;;;;;1.75;1.75;;;;;6.54;78.33;103186.56;5103507;27;45355;-82
2022/01/17 05:31:48;;;;;;;;;2.00;1.00;;;;;6.00;78.31;103104.63;5085747;28;45489;-82
2022/01/17 05:34:14;;;;;;;;;1.00;1.00;;;;;6.06;77.94;103117.06;5085883;28;46823;-81
2022/01/17 05:36:39;;;;;;;;;4.00;2.00;;;;;6.06;77.96;103110.22;5071742;28;45395;-81
2022/01/17 05:39:05;;;;;;;;;1.75;1.75;;;;;6.53;78.32;103196.03;5090660;28;45608;-80
2022/01/17 05:41:30;;;;;;;;;2.25;1.00;;;;;6.29;77.52;103148.75;5084610;28;45345;-82
2022/01/17 05:43:55;;;;;;;;;2.00;2.00;;;;;5.97;77.99;103117.34;5059721;28;45636;-81
2022/01/17 05:46:21;;;;;;;;;4.00;3.50;;;;;6.43;78.04;103210.03;5066872;28;45434;-81
2022/01/17 05:48:46;;;;;;;;;2.50;2.00;;;;;6.33;78.01;103205.97;5070772;28;45394;-81
2022/01/17 05:51:12;;;;;;;;;4.25;4.25;;;;;6.20;78.62;103203.34;5068711;28;45400;-81
2022/01/17 05:53:37;;;;;;;;;3.25;3.25;;;;;5.86;78.40;103164.84;5075265;28;45646;-82
2022/01/17 05:56:03;;;;;;;;;1.75;1.75;;;;;5.95;78.67;103191.34;5073199;28;45364;-82
2022/01/17 05:58:28;;;;;;;;;1.25;1.25;;;;;5.95;78.74;103186.16;5076374;28;45431;-81
2022/01/17 06:00:54;;;;;;;;;5.00;2.25;;;;;5.90;78.97;103183.28;5048003;28;45603;-82
2022/01/17 06:03:19;;;;;;;;;2.75;2.75;;;;;5.94;78.84;103192.09;5060035;28;47007;-82
2022/01/17 06:05:45;;;;;;;;;1.00;1.00;;;;;5.75;78.49;103156.38;5061576;28;45439;-82
2022/01/17 06:08:10;;;;;;;;;1.00;1.00;;;;;6.03;79.02;103195.31;5063900;28;45511;-82
2022/01/17 06:10:36;;;;;;;;;3.00;2.00;;;;;6.16;78.60;103212.59;5060535;28;45344;-81
2022/01/17 06:13:01;;;;;;;;;3.75;3.00;;;;;5.70;78.47;103133.69;5053286;28;47217;-84
2022/01/17 06:15:27;;;;;;;;;1.25;1.25;;;;;6.17;78.75;103217.00;5072440;28;45464;-84
2022/01/17 06:17:53;;;;;;;;;3.00;2.25;;;;;6.18;78.95;103217.88;5065623;28;45874;-82
2022/01/17 06:20:19;;;;;;;;;3.25;3.00;;;;;5.32;79.13;103072.56;5069026;28;45540;-79
2022/01/17 06:22:44;;;;;;;;;4.00;3.50;;;;;5.48;78.49;103114.97;5072169;28;45539;-79
2022/01/17 06:25:10;;;;;;;;;3.75;3.50;;;;;6.02;78.34;103227.16;5076592;28;45505;-81
2022/01/17 06:27:35;;;;;;;;;2.00;2.00;;;;;5.82;78.26;103212.88;5066926;28;45422;-82
2022/01/17 06:30:02;;;;;;;;;3.00;3.00;;;;;6.00;78.72;103243.38;5057851;28;45484;-83
2022/01/17 06:32:28;;;;;;;;;4.00;3.00;;;;;5.91;79.26;103247.09;5056368;28;47674;-81
2022/01/17 06:34:54;;;;;;;;;2.00;1.75;;;;;5.52;79.23;103203.13;5083542;27;45338;-81
2022/01/17 06:37:20;;;;;;;;;3.25;3.25;;;;;5.54;79.47;103217.03;5076394;27;45429;-80
2022/01/17 06:39:45;;;;;;;;;2.00;2.00;;;;;5.82;79.32;103255.13;5082991;28;45798;-81
2022/01/17 06:42:11;;;;;;;;;6.75;4.50;;;;;5.78;79.65;103266.06;5076539;27;46077;-82
2022/01/17 06:44:36;;;;;;;;;3.75;3.00;;;;;5.50;79.82;103227.97;5080510;27;47010;-80
2022/01/17 06:47:02;;;;;;;;;3.50;3.25;;;;;5.39;79.54;103210.81;5089767;27;46087;-80
2022/01/17 06:49:27;;;;;;;;;2.50;2.50;;;;;5.24;79.39;103192.56;5079815;28;44908;-80
2022/01/17 06:51:52;;;;;;;;;1.50;1.00;;;;;5.69;78.99;103276.66;5078269;28;45589;-82
2022/01/17 06:54:18;;;;;;;;;3.50;3.50;;;;;5.50;79.58;103246.03;5094042;27;45425;-77
2022/01/17 06:56:46;;;;;;;;;2.00;2.00;;;;;5.66;79.08;103253.19;5083463;27;45424;-76
2022/01/17 06:59:13;;;;;;;;;3.75;2.00;;;;;5.34;79.26;103192.41;5071635;27;45535;-82
2022/01/17 07:01:39;;;;;;;;;2.00;2.00;;;;;5.77;79.10;103260.78;5058640;28;48554;-77
2022/01/17 07:04:06;;;;;;;;;1.00;1.00;;;;;5.76;79.23;103262.44;5069868;27;45730;-80
2022/01/17 07:06:32;;;;;;;;;3.00;2.25;;;;;5.78;79.30;103286.75;5074322;27;45433;-83
2022/01/17 07:08:58;;;;;;;;;3.00;1.00;;;;;5.80;79.06;103279.09;5082739;27;45994;-78
2022/01/17 07:11:26;;;;;;;;;3.25;2.00;;;;;5.81;79.10;103278.28;5068433;27;45808;-82
2022/01/17 07:13:52;;;;;;;;;2.50;2.50;;;;;5.70;79.13;103267.22;5065778;27;45654;-83
2022/01/17 07:16:19;;;;;;;;;4.00;2.50;;;;;5.47;78.67;103247.50;5083617;27;45393;-83
2022/01/17 07:18:44;;;;;;;;;2.00;2.00;;;;;5.35;78.56;103235.53;5057652;28;45364;-82
2022/01/17 07:21:10;;;;;;;;;4.00;2.50;;;;;5.78;78.46;103351.34;5078607;28;45390;-84
2022/01/17 07:23:36;;;;;;;;;2.25;2.25;;;;;5.16;78.35;103246.22;5056287;28;45391;-82
2022/01/17 07:26:01;;;;;;;;;2.00;2.00;;;;;5.53;78.47;103305.69;5080612;28;45365;-81
2022/01/17 07:28:27;;;;;;;;;3.00;2.00;;;;;5.52;78.76;103300.41;5073607;28;45529;-81
2022/01/17 07:30:52;;;;;;;;;3.25;2.00;;;;;5.58;78.69;103275.88;5079301;28;46065;-81
2022/01/17 07:33:20;;;;;;;;;2.00;2.00;;;;;5.10;78.69;103201.88;5064791;28;45625;-81
2022/01/17 07:35:48;;;;;;;;;3.25;1.50;;;;;5.40;78.32;103233.28;5080666;28;45719;-81
2022/01/17 07:38:14;;;;;;;;;3.00;2.25;;;;;5.19;78.53;103187.06;5069664;28;45615;-84
2022/01/17 07:40:42;;;;;;;;;3.75;3.75;;;;;5.40;78.31;103226.44;5068037;28;45423;-78
2022/01/17 07:43:09;;;;;;;;;2.50;2.00;;;;;5.93;78.48;103309.28;5051116;28;45973;-77
2022/01/17 07:45:36;;;;;;;;;5.50;3.25;;;;;5.92;78.10;103305.81;5062332;27;47157;-80
2022/01/17 07:48:12;;;;;;;;;5.00;2.75;;;;;5.59;78.21;103245.78;5067363;28;45359;-83
2022/01/17 07:50:39;;;;;;;;;2.00;2.00;;;;;5.59;78.50;103245.78;5065757;27;45442;-81
2022/01/17 07:53:04;;;;;;;;;3.00;2.00;;;;;5.60;78.30;103242.41;5088009;27;45493;-79
2022/01/17 07:55:29;;;;;;;;;2.25;2.25;;;;;5.94;77.82;103317.13;5079248;27;45449;-80
2022/01/17 07:57:55;;;;;;;;;5.25;3.25;;;;;5.42;78.32;103231.69;5076404;27;45336;-79
2022/01/17 08:00:22;;;;;;;;;3.75;1.00;;;;;6.11;77.95;103338.13;5078300;28;46191;-79
2022/01/17 08:02:50;;;;;;;;;5.00;5.00;;;;;5.60;77.86;103255.31;5054764;28;45528;-79
2022/01/17 08:05:15;;;;;;;;;3.50;3.50;;;;;5.70;78.34;103267.22;5075338;28;45527;-77
2022/01/17 08:07:43;;;;;;;;;2.75;2.00;;;;;5.92;77.52;103300.63;5078251;28;45455;-77
2022/01/17 08:10:12;;;;;;;;;2.25;2.00;;;;;6.19;77.67;103328.31;5053590;28;47207;-78
2022/01/17 08:12:39;;;;;;;;;1.00;1.00;;;;;6.12;77.90;103315.75;5048585;28;46208;-77
2022/01/17 08:15:05;;;;;;;;;4.25;4.00;;;;;6.24;77.52;103334.69;5049171;28;45351;-77
2022/01/17 08:17:31;;;;;;;;;1.75;0.50;;;;;6.14;77.83;103311.56;5059954;27;46095;-77
2022/01/17 08:19:56;;;;;;;;;2.50;2.50;;;;;6.23;77.64;103322.56;5074184;28;45916;-79
2022/01/17 08:22:21;;;;;;;;;3.00;2.00;;;;;6.31;77.59;103330.84;5080970;27;45449;-78
2022/01/17 08:24:47;;;;;;;;;1.00;0.25;;;;;6.43;77.61;103352.38;5050895;28;45399;-80
2022/01/17 08:27:13;;;;;;;;;5.00;3.50;;;;;6.46;77.67;103350.00;5082432;28;45422;-76
2022/01/17 08:29:38;;;;;;;;;2.75;2.00;;;;;6.13;76.93;103295.19;5061364;28;47189;-78
2022/01/17 08:32:05;;;;;;;;;2.00;1.00;;;;;6.56;77.06;103355.81;5084130;27;45447;-79
2022/01/17 08:34:31;;;;;;;;;2.00;1.75;;;;;6.25;76.99;103283.88;5077808;27;45468;-78
2022/01/17 08:36:57;;;;;;;;;4.50;4.25;;;;;6.65;76.89;103351.22;5079122;28;45288;-77
2022/01/17 08:39:24;;;;;;;;;2.00;2.00;;;;;6.70;76.67;103349.84;5058013;28;45985;-78
2022/01/17 08:41:51;;;;;;;;;2.75;1.50;;;;;6.59;76.25;103317.19;5078608;28;45331;-78
2022/01/17 08:44:19;;;;;;;;;4.00;3.00;;;;;6.65;76.18;103321.88;5086972;28;45413;-78
2022/01/17 08:46:44;;;;;;;;;2.25;2.25;;;;;6.95;76.24;103361.84;5066330;27;45577;-78
2022/01/17 08:49:10;;;;;;;;;2.00;1.25;;;;;6.69;75.71;103310.91;5062864;27;47018;-80
2022/01/17 08:51:36;;;;;;;;;6.25;4.75;;;;;6.56;75.84;103279.03;5089951;27;45683;-77
2022/01/17 08:54:01;;;;;;;;;4.00;2.50;;;;;6.89;76.07;103337.25;5080071;27;45545;-79
2022/01/17 08:56:29;;;;;;;;;3.25;2.75;;;;;7.18;75.77;103385.78;5083857;28;45794;-78
2022/01/17 08:58:55;;;;;;;;;3.75;3.75;;;;;6.98;75.17;103350.78;5082213;28;45489;-79
2022/01/17 09:01:22;;;;;;;;;4.50;2.25;;;;;7.04;74.87;103340.81;5082910;28;45408;-78
2022/01/17 09:03:48;;;;;;;;;2.75;2.00;;;;;6.95;74.89;103335.94;5086051;27;45778;-77
2022/01/17 09:06:13;;;;;;;;;4.75;3.00;;;;;7.28;75.22;103374.31;5082692;27;45398;-79
2022/01/17 09:08:39;;;;;;;;;2.50;2.50;;;;;7.12;74.70;103363.72;5084064;28;46539;-76
2022/01/17 09:11:04;;;;;;;;;1.00;1.00;;;;;7.15;74.88;103370.03;5085680;28;45291;-76
2022/01/17 09:13:30;;;;;;;;;1.75;1.75;;;;;7.09;74.49;103356.66;5082525;28;45580;-77
2022/01/17 09:15:55;;;;;;;;;3.00;3.00;;;;;7.18;74.66;103370.22;5086644;28;45635;-76
2022/01/17 09:18:22;;;;;;;;;3.00;1.75;;;;;7.14;74.90;103393.25;5082263;28;46250;-76
2022/01/17 09:20:47;;;;;;;;;3.75;2.00;;;;;7.04;74.75;103400.41;5086260;27;45264;-78
2022/01/17 09:23:13;;;;;;;;;3.25;3.25;;;;;7.08;74.92;103422.22;5065842;28;45494;-78
2022/01/17 09:25:40;;;;;;;;;2.75;2.25;;;;;6.84;74.45;103393.91;5079076;27;45485;-77
2022/01/17 09:28:06;;;;;;;;;1.00;1.00;;;;;6.92;75.23;103400.47;5081690;27;46767;-78
2022/01/17 09:30:31;;;;;;;;;1.75;1.75;;;;;6.73;74.65;103362.09;5085697;27;45488;-77
2022/01/17 09:32:57;;;;;;;;;2.00;1.00;;;;;7.07;74.67;103410.97;5083184;27;45466;-78
2022/01/17 09:35:23;;;;;;;;;3.00;3.00;;;;;7.21;74.48;103424.84;5082682;28;45728;-81
2022/01/17 09:37:50;;;;;;;;;3.00;2.00;;;;;7.30;74.12;103440.09;5072310;28;45649;-80
2022/01/17 09:40:18;;;;;;;;;5.00;2.25;;;;;7.33;74.36;103444.56;5075904;28;45630;-77
2022/01/17 09:42:44;;;;;;;;;3.25;3.25;;;;;7.37;74.12;103445.66;5063254;28;45431;-76
2022/01/17 09:45:12;;;;;;;;;1.00;1.00;;;;;7.42;74.09;103432.22;5059451;28;45743;-76
2022/01/17 09:47:38;;;;;;;;;2.00;0.00;;;;;7.44;73.94;103422.84;5079986;28;46490;-77
2022/01/17 09:50:11;;;;;;;;;0.75;0.75;;;;;7.25;73.46;103384.47;5068876;28;46123;-79
2022/01/17 09:52:44;;;;;;;;;3.00;2.75;;;;;7.29;73.69;103398.53;5073517;27;45424;-76
2022/01/17 09:55:15;;;;;;;;;2.00;2.00;;;;;7.41;73.63;103448.56;5067652;28;45546;-76
2022/01/17 09:57:45;;;;;;;;;1.00;1.00;;;;;7.35;74.04;103462.00;5055436;28;49390;-76
2022/01/17 10:00:14;;;;;;;;;3.25;2.00;;;;;7.33;73.78;103447.16;5072647;28;45604;-77
2022/01/17 10:02:41;;;;;;;;;0.50;0.50;;;;;7.32;73.56;103448.84;5053835;28;45604;-77
2022/01/17 10:05:08;;;;;;;;;2.75;2.75;;;;;7.17;73.89;103437.50;5077351;28;45311;-76
2022/01/17 10:07:53;;;;;;;;;2.00;1.00;;;;;7.43;74.16;103466.78;5083317;28;45701;-78
2022/01/17 10:10:51;;;;;;;;;2.00;2.00;;;;;7.38;73.15;103457.84;5072894;28;45435;-80
2022/01/17 10:13:30;;;;;;;;;3.00;3.00;;;;;7.40;73.34;103459.72;5079928;28;45497;-80
2022/01/17 10:16:12;;;;;;;;;4.75;2.50;;;;;7.53;73.45;103468.31;5059008;28;45889;-82
2022/01/17 10:18:37;;;;;;;;;3.00;3.00;;;;;7.50;73.93;103460.34;5040940;28;47327;-80
2022/01/17 10:21:14;;;;;;;;;1.00;1.00;;;;;7.28;73.34;103441.69;5068266;28;45475;-81
2022/01/17 10:23:56;;;;;;;;;2.00;2.00;;;;;7.06;73.26;103392.72;5064453;28;45405;-80
2022/01/17 10:36:56;;;;;;;;;2.00;2.00;;;;;7.54;73.32;103486.56;5061078;28;45336;-77
2022/01/17 10:39:21;;;;;;;;;1.75;1.75;;;;;7.39;73.47;103464.81;5036594;28;46756;-77
2022/01/17 10:41:47;;;;;;;;;3.50;1.00;;;;;7.16;73.35;103440.84;5058188;28;45460;-79
2022/01/17 10:44:36;;;;;;;;;2.50;2.50;;;;;6.63;73.72;103359.69;5055056;28;45468;-80
2022/01/17 10:47:22;;;;;;;;;2.00;2.00;;;;;7.44;73.48;103484.16;5059413;28;45720;-79
2022/01/17 10:50:01;;;;;;;;;1.50;1.50;;;;;7.39;73.86;103451.84;5056435;28;45600;-78
2022/01/17 10:52:40;;;;;;;;;5.00;2.00;;;;;7.50;73.23;103473.31;5051707;28;45313;-82
2022/01/17 10:55:18;;;;;;;;;5.25;2.00;;;;;7.43;73.94;103453.84;5050572;27;45488;-79
2022/01/17 10:57:45;;;;;;;;;3.50;2.75;;;;;7.20;73.89;103396.25;5039659;28;45663;-78
2022/01/17 11:00:14;;;;;;;;;1.00;1.00;;;;;7.29;73.70;103408.91;5037933;28;46475;-80
2022/01/17 11:02:44;;;;;;;;;3.00;1.25;;;;;7.60;74.26;103435.09;5017128;28;45505;-80
2022/01/17 11:05:12;;;;;;;;;1.00;1.00;;;;;7.37;73.38;103376.59;5063629;28;45378;-81
2022/01/17 11:07:40;;;;;;;;;4.25;2.00;;;;;7.53;73.41;103408.69;5071954;28;45780;-81
2022/01/17 11:10:08;;;;;;;;;2.50;2.50;;;;;7.66;73.77;103426.81;5057282;28;45564;-79
2022/01/17 11:12:34;;;;;;;;;3.50;1.25;;;;;7.60;73.14;103403.09;5048600;28;45553;-86
2022/01/17 11:15:00;;;;;;;;;2.00;2.00;;;;;7.45;73.54;103384.88;5060403;28;45256;-81
2022/01/17 11:17:38;;;;;;;;;2.25;1.00;;;;;7.29;73.80;103365.72;5061333;28;45551;-79
2022/01/17 11:20:08;;;;;;;;;1.50;1.50;;;;;7.55;73.81;103394.13;5057676;28;46342;-82
2022/01/17 11:22:40;;;;;;;;;1.00;1.00;;;;;7.59;73.02;103401.28;5037111;28;45406;-82
2022/01/17 11:25:09;;;;;;;;;1.00;1.00;;;;;7.29;73.04;103345.00;5039947;28;47099;-85
2022/01/17 11:27:35;;;;;;;;;4.25;2.25;;;;;7.47;73.22;103363.41;5057424;28;46348;-78
2022/01/17 11:30:02;;;;;;;;;2.50;1.75;;;;;7.98;73.18;103421.88;5059793;28;45544;-78
2022/01/17 11:32:28;;;;;;;;;1.00;1.00;;;;;7.66;72.82;103366.28;5058531;28;45894;-78
2022/01/17 11:34:55;;;;;;;;;2.00;1.50;;;;;8.07;72.68;103419.88;5070858;28;45343;-80
2022/01/17 11:37:21;;;;;;;;;3.75;2.00;;;;;7.73;72.53;103374.56;5056111;28;45779;-82
2022/01/17 11:39:53;;;;;;;;;2.00;2.00;;;;;7.92;72.88;103403.31;5068421;27;45733;-78
2022/01/17 11:42:44;;;;;;;;;2.75;2.00;;;;;7.95;72.72;103425.19;5069171;27;45892;-79
2022/01/17 11:45:22;;;;;;;;;1.50;1.50;;;;;7.96;72.65;103414.00;5069216;28;45413;-82
2022/01/17 11:47:49;;;;;;;;;2.75;1.75;;;;;7.99;72.79;103434.03;5071287;28;45817;-76
2022/01/17 11:50:42;;;;;;;;;2.50;2.50;;;;;7.73;72.78;103405.69;5048789;28;48044;-77
2022/01/17 11:53:11;;;;;;;;;2.75;2.25;;;;;7.85;73.56;103430.59;5056627;28;45932;-79
2022/01/17 11:55:39;;;;;;;;;3.25;2.50;;;;;7.86;73.14;103438.47;5069995;28;45669;-79
2022/01/17 11:58:25;;;;;;;;;2.50;1.75;;;;;7.73;73.02;103436.81;5069264;28;45410;-78
2022/01/17 12:00:57;;;;;;;;;4.50;2.00;;;;;7.62;73.70;103434.31;5067615;28;46329;-78